Time;durP1;ratioP1;P1;durP2;ratioP2;P2;SDS_P1;SDS_P2;PMS_P1;PMS_P2;Temp;Humidity;BMP_temperature;BMP_pressure;BME280_temperature;BME280_humidity;BME280_pressure;Samples;Min_cycle;Max_cycle;Signal;HPM_P1;HPM_P2
2020/12/25 00:01:56;;;;;;;10.10;4.63;;;4.30;99.90;;;;;;4997921;28;20206;-78
2020/12/25 00:04:22;;;;;;;9.93;4.80;;;4.30;99.90;;;;;;5012902;28;20183;-77
2020/12/25 00:06:47;;;;;;;7.30;4.63;;;4.30;99.90;;;;;;4997113;28;20218;-79
2020/12/25 00:09:13;;;;;;;9.37;4.03;;;4.30;99.90;;;;;;4996931;28;20178;-79
2020/12/25 00:11:39;;;;;;;7.70;3.83;;;4.30;99.90;;;;;;5011892;28;20198;-79
2020/12/25 00:14:04;;;;;;;6.67;4.10;;;4.30;99.90;;;;;;4998111;28;20185;-78
2020/12/25 00:16:30;;;;;;;7.37;3.77;;;4.20;99.90;;;;;;4996599;28;20556;-76
2020/12/25 00:18:55;;;;;;;8.60;4.40;;;4.20;99.90;;;;;;5011978;28;20669;-79
2020/12/25 00:21:21;;;;;;;5.73;3.50;;;4.10;99.90;;;;;;5012581;28;20176;-80
2020/12/25 00:23:47;;;;;;;6.90;3.63;;;4.10;99.90;;;;;;4996726;28;20647;-76
2020/12/25 00:26:28;;;;;;;5.63;4.07;;;4.10;99.90;;;;;;5030980;22;20226;-81
2020/12/25 00:28:55;;;;;;;7.57;3.30;;;4.10;99.90;;;;;;5014735;28;20209;-81
2020/12/25 00:31:31;;;;;;;7.70;3.60;;;4.00;99.90;;;;;;5031086;28;20195;-81
2020/12/25 00:33:57;;;;;;;12.33;4.33;;;4.00;99.90;;;;;;5014868;28;20185;-80
2020/12/25 00:36:43;;;;;;;5.53;3.23;;;4.00;99.90;;;;;;5014455;28;20616;-81
2020/12/25 00:39:10;;;;;;;6.17;3.23;;;4.00;99.90;;;;;;5030899;28;20183;-80
2020/12/25 00:41:48;;;;;;;7.00;2.73;;;4.00;99.90;;;;;;5014368;28;20664;-81
2020/12/25 00:44:13;;;;;;;6.33;3.30;;;3.90;99.90;;;;;;5014694;28;20177;-80
2020/12/25 00:46:39;;;;;;;10.37;3.23;;;3.90;99.90;;;;;;5014042;28;20199;-80
2020/12/25 00:49:05;;;;;;;9.00;3.63;;;3.90;99.90;;;;;;5030934;28;20171;-80
2020/12/25 00:51:30;;;;;;;7.03;3.40;;;3.90;99.90;;;;;;5014805;28;20185;-81
2020/12/25 00:53:56;;;;;;;6.77;3.17;;;3.80;99.90;;;;;;5018145;28;20270;-80
2020/12/25 00:56:21;;;;;;;8.83;3.37;;;3.80;99.90;;;;;;5017796;28;20677;-81
2020/12/25 00:58:47;;;;;;;7.50;3.17;;;3.80;99.90;;;;;;5018039;28;20183;-81
2020/12/25 01:01:13;;;;;;;4.77;2.97;;;3.70;99.90;;;;;;5017894;28;20186;-81
2020/12/25 01:03:40;;;;;;;7.00;3.17;;;3.70;99.90;;;;;;5018011;28;20191;-81
2020/12/25 01:06:12;;;;;;;6.90;3.10;;;3.70;99.90;;;;;;5017923;28;20203;-81
2020/12/25 01:08:38;;;;;;;6.50;2.83;;;3.70;99.90;;;;;;5034518;28;20271;-81
2020/12/25 01:11:05;;;;;;;5.33;2.77;;;3.70;99.90;;;;;;5017720;28;20204;-80
2020/12/25 01:13:31;;;;;;;7.20;3.27;;;3.60;99.90;;;;;;5017867;28;20262;-80
2020/12/25 01:16:01;;;;;;;8.10;2.83;;;3.60;99.90;;;;;;5001420;28;20205;-81
2020/12/25 01:18:27;;;;;;;9.00;2.90;;;3.60;99.90;;;;;;5018014;28;20182;-81
2020/12/25 01:20:53;;;;;;;6.37;2.47;;;3.60;99.90;;;;;;5017552;28;20241;-82
2020/12/25 01:23:18;;;;;;;7.03;2.53;;;3.60;99.90;;;;;;5017764;28;20174;-81
2020/12/25 01:25:44;;;;;;;8.13;2.33;;;3.60;99.90;;;;;;5017742;28;20183;-81
2020/12/25 01:28:09;;;;;;;7.37;2.43;;;3.50;99.90;;;;;;5017262;28;20242;-82
2020/12/25 01:30:35;;;;;;;6.57;2.10;;;3.50;99.90;;;;;;5017610;28;20165;-80
2020/12/25 01:33:00;;;;;;;7.00;2.20;;;3.50;99.90;;;;;;5017450;28;20673;-80
2020/12/25 01:35:26;;;;;;;8.33;2.27;;;3.50;99.90;;;;;;5017394;28;20536;-80
2020/12/25 01:37:51;;;;;;;6.33;2.27;;;3.50;99.90;;;;;;5017162;28;20740;-80
2020/12/25 01:40:17;;;;;;;6.17;2.27;;;3.50;99.90;;;;;;5017574;28;20183;-81
2020/12/25 01:42:42;;;;;;;2.97;1.80;;;3.40;99.90;;;;;;5017352;28;20171;-80
2020/12/25 01:45:08;;;;;;;11.77;2.37;;;3.40;99.90;;;;;;5017312;28;20189;-80
2020/12/25 01:47:33;;;;;;;4.03;1.90;;;3.40;99.90;;;;;;5016786;28;20237;-80
2020/12/25 01:49:59;;;;;;;6.33;2.00;;;3.40;99.90;;;;;;5017043;28;20170;-80
2020/12/25 01:52:25;;;;;;;5.60;2.00;;;3.30;99.90;;;;;;5017350;28;20171;-81
2020/12/25 01:54:50;;;;;;;6.90;1.90;;;3.30;99.90;;;;;;5017119;28;20186;-80
2020/12/25 01:57:16;;;;;;;7.87;1.90;;;3.30;99.90;;;;;;5017205;28;20195;-80
2020/12/25 01:59:41;;;;;;;7.10;1.70;;;3.20;99.90;;;;;;5018014;28;20209;-81
2020/12/25 02:02:07;;;;;;;4.80;1.80;;;3.30;99.90;;;;;;5017812;28;20664;-81
2020/12/25 02:04:33;;;;;;;6.63;2.30;;;3.20;99.90;;;;;;5016621;28;20664;-80
2020/12/25 02:06:58;;;;;;;6.13;2.20;;;3.20;99.90;;;;;;5016940;28;20750;-82
2020/12/25 02:09:24;;;;;;;7.00;2.07;;;3.10;99.90;;;;;;5016946;28;20312;-81
2020/12/25 02:11:49;;;;;;;4.83;1.70;;;3.10;99.90;;;;;;5017145;28;20194;-80
2020/12/25 02:14:15;;;;;;;8.83;1.93;;;3.00;99.90;;;;;;5016973;28;20203;-80
2020/12/25 02:16:40;;;;;;;5.73;2.40;;;3.00;99.90;;;;;;5016604;28;20195;-82
2020/12/25 02:19:07;;;;;;;6.33;2.03;;;3.00;99.90;;;;;;5016597;28;20551;-80
2020/12/25 02:21:33;;;;;;;6.57;1.93;;;2.90;99.90;;;;;;5016936;28;20171;-81
2020/12/25 02:23:58;;;;;;;7.60;1.83;;;2.90;99.90;;;;;;5016812;28;20191;-80
2020/12/25 02:26:24;;;;;;;6.27;1.80;;;2.80;99.90;;;;;;5016401;28;20252;-81
2020/12/25 02:28:49;;;;;;;9.20;2.00;;;2.70;99.90;;;;;;5016597;28;20206;-84
2020/12/25 02:31:15;;;;;;;7.23;1.87;;;2.70;99.90;;;;;;5016782;28;20171;-80
2020/12/25 02:33:41;;;;;;;6.20;1.80;;;2.70;99.90;;;;;;5016659;28;20182;-81
2020/12/25 02:36:06;;;;;;;8.03;2.10;;;2.60;99.90;;;;;;5016223;28;20293;-81
2020/12/25 02:38:32;;;;;;;10.33;2.10;;;2.60;99.90;;;;;;5015782;28;20230;-81
2020/12/25 02:40:57;;;;;;;7.47;2.00;;;2.50;99.90;;;;;;4991351;28;20195;-81
2020/12/25 02:43:23;;;;;;;3.60;1.67;;;2.50;99.90;;;;;;5015614;28;20638;-80
2020/12/25 02:45:48;;;;;;;6.83;2.17;;;2.40;99.90;;;;;;5016387;28;20599;-80
2020/12/25 02:48:14;;;;;;;7.00;1.93;;;2.40;99.90;;;;;;5016063;28;20355;-81
2020/12/25 02:50:39;;;;;;;6.23;1.93;;;2.40;99.90;;;;;;5016195;28;20175;-80
2020/12/25 02:53:05;;;;;;;7.97;2.10;;;2.30;99.90;;;;;;5016310;28;20183;-81
2020/12/25 02:55:31;;;;;;;8.03;2.17;;;2.30;99.90;;;;;;5008461;28;20186;-80
2020/12/25 02:57:56;;;;;;;8.60;2.00;;;2.20;99.90;;;;;;4997651;28;20249;-81
2020/12/25 03:00:22;;;;;;;7.27;2.00;;;2.20;99.90;;;;;;4996839;28;20180;-81
2020/12/25 03:02:47;;;;;;;6.40;1.70;;;2.20;99.90;;;;;;4997087;28;20183;-80
2020/12/25 03:05:13;;;;;;;6.27;1.80;;;2.20;99.90;;;;;;4997132;28;20242;-80
2020/12/25 03:07:38;;;;;;;6.40;1.53;;;2.20;99.90;;;;;;4997223;28;20233;-80
2020/12/25 03:10:04;;;;;;;5.87;1.90;;;2.20;99.90;;;;;;4997611;28;20225;-81
2020/12/25 03:12:30;;;;;;;7.47;2.07;;;2.10;99.90;;;;;;4997202;28;20214;-81
2020/12/25 03:14:55;;;;;;;4.00;1.80;;;2.10;99.90;;;;;;4996877;28;20183;-80
2020/12/25 03:17:21;;;;;;;7.73;2.47;;;2.00;99.90;;;;;;4998510;28;20601;-81
2020/12/25 03:19:46;;;;;;;7.00;1.83;;;2.00;99.90;;;;;;4998857;28;20582;-80
2020/12/25 03:22:12;;;;;;;8.80;1.87;;;2.00;99.90;;;;;;4998229;28;20552;-80
2020/12/25 03:24:37;;;;;;;8.37;1.73;;;2.00;99.90;;;;;;4995950;28;20563;-80
2020/12/25 03:27:03;;;;;;;6.50;1.77;;;2.00;99.90;;;;;;4995446;28;20218;-80
2020/12/25 03:29:28;;;;;;;8.97;2.13;;;1.90;99.90;;;;;;4995602;28;20183;-81
2020/12/25 03:31:54;;;;;;;6.67;1.87;;;1.90;99.90;;;;;;4995744;28;20179;-80
2020/12/25 03:34:19;;;;;;;10.33;1.70;;;1.90;99.90;;;;;;4995576;28;20184;-80
2020/12/25 03:36:45;;;;;;;9.23;1.70;;;1.90;99.90;;;;;;4995295;28;20298;-80
2020/12/25 03:39:10;;;;;;;4.50;1.50;;;1.90;99.90;;;;;;4995432;28;20229;-81
2020/12/25 03:41:36;;;;;;;7.23;1.90;;;1.90;99.90;;;;;;4995030;28;20534;-80
2020/12/25 03:44:01;;;;;;;11.27;2.10;;;1.90;99.90;;;;;;4995626;28;20175;-81
2020/12/25 03:46:34;;;;;;;9.37;1.53;;;1.90;99.90;;;;;;4995036;28;20199;-82
2020/12/25 03:49:00;;;;;;;6.13;1.50;;;1.80;99.90;;;;;;4995531;28;20198;-81
2020/12/25 03:51:25;;;;;;;9.70;1.73;;;1.80;99.90;;;;;;4995462;28;20176;-81
2020/12/25 03:53:51;;;;;;;5.10;1.50;;;1.80;99.90;;;;;;4995472;28;20234;-82
2020/12/25 03:56:16;;;;;;;8.23;1.87;;;1.80;99.90;;;;;;4979357;28;20206;-81
2020/12/25 03:58:42;;;;;;;4.90;1.50;;;1.70;99.90;;;;;;4979161;28;20427;-81
2020/12/25 04:01:07;;;;;;;6.70;1.80;;;1.80;99.90;;;;;;4995129;28;20194;-80
2020/12/25 04:03:33;;;;;;;9.97;2.40;;;1.80;99.90;;;;;;4995213;28;20184;-81
2020/12/25 04:05:58;;;;;;;7.83;1.77;;;1.70;99.90;;;;;;4995159;28;20194;-80
2020/12/25 04:08:24;;;;;;;10.87;1.93;;;1.70;99.90;;;;;;4994971;28;20213;-80
2020/12/25 04:10:50;;;;;;;11.80;1.70;;;1.70;99.90;;;;;;4995218;28;20229;-81
2020/12/25 04:13:15;;;;;;;9.10;1.93;;;1.70;99.90;;;;;;4995569;28;20206;-80
2020/12/25 04:15:41;;;;;;;7.27;1.77;;;1.70;99.90;;;;;;4994911;28;20177;-80
2020/12/25 04:18:06;;;;;;;7.50;1.63;;;1.60;99.90;;;;;;4994955;28;20874;-80
2020/12/25 04:20:32;;;;;;;7.33;1.70;;;1.60;99.90;;;;;;4995615;28;20718;-80
2020/12/25 04:22:57;;;;;;;10.03;1.80;;;1.60;99.90;;;;;;4995316;28;20686;-80
2020/12/25 04:25:23;;;;;;;7.67;1.73;;;1.60;99.90;;;;;;4995022;28;20638;-80
2020/12/25 04:27:48;;;;;;;4.50;1.60;;;1.60;99.90;;;;;;4997181;28;20634;-81
2020/12/25 04:30:14;;;;;;;7.07;1.70;;;1.50;99.90;;;;;;4999071;28;20586;-80
2020/12/25 04:32:39;;;;;;;7.23;1.50;;;1.50;99.90;;;;;;4999072;28;20646;-80
2020/12/25 04:35:05;;;;;;;9.60;2.00;;;1.50;99.90;;;;;;4999106;28;20257;-80
2020/12/25 04:37:30;;;;;;;8.03;1.70;;;1.50;99.90;;;;;;4998638;28;20269;-81
2020/12/25 04:39:56;;;;;;;7.97;2.03;;;1.40;99.90;;;;;;4998838;28;20239;-80
2020/12/25 04:42:25;;;;;;;10.00;1.77;;;1.40;99.90;;;;;;4998809;28;20179;-81
2020/12/25 04:44:51;;;;;;;5.63;1.60;;;1.40;99.90;;;;;;4998948;28;20294;-80
2020/12/25 04:47:16;;;;;;;7.93;1.87;;;1.40;99.90;;;;;;4998270;28;20238;-81
2020/12/25 04:49:42;;;;;;;10.77;1.87;;;1.30;99.90;;;;;;4998342;28;20636;-80
2020/12/25 04:52:07;;;;;;;6.17;1.67;;;1.30;99.90;;;;;;4982374;28;20580;-80
2020/12/25 04:54:33;;;;;;;7.03;1.73;;;1.30;99.90;;;;;;4998520;28;20231;-81
2020/12/25 04:56:59;;;;;;;7.90;2.23;;;1.30;99.90;;;;;;4998534;28;20210;-80
2020/12/25 04:59:26;;;;;;;8.50;2.10;;;1.30;99.90;;;;;;4998618;28;20222;-81
2020/12/25 05:01:53;;;;;;;7.30;2.00;;;1.30;99.90;;;;;;4998642;28;20172;-80
2020/12/25 05:04:19;;;;;;;8.67;1.90;;;1.40;99.90;;;;;;4998520;28;20190;-80
2020/12/25 05:06:49;;;;;;;7.17;2.10;;;1.40;99.90;;;;;;4998251;28;20682;-80
2020/12/25 05:09:16;;;;;;;8.63;1.80;;;1.40;99.90;;;;;;4998513;28;20206;-80
2020/12/25 05:11:41;;;;;;;9.30;2.23;;;1.40;99.90;;;;;;4998182;28;20236;-80
2020/12/25 05:14:07;;;;;;;9.23;2.07;;;1.30;99.90;;;;;;4998085;28;20625;-81
2020/12/25 05:16:33;;;;;;;10.40;2.03;;;1.30;99.90;;;;;;4997980;28;20200;-80
2020/12/25 05:18:58;;;;;;;8.30;2.00;;;1.30;99.90;;;;;;4998391;28;20176;-80
2020/12/25 05:21:24;;;;;;;5.63;1.73;;;1.20;99.90;;;;;;4998190;28;20179;-80
2020/12/25 05:23:50;;;;;;;8.57;2.13;;;1.20;99.90;;;;;;5014340;28;20283;-81
2020/12/25 05:26:16;;;;;;;6.80;1.97;;;1.10;99.90;;;;;;4997691;28;20292;-80
2020/12/25 05:28:48;;;;;;;6.87;1.83;;;1.20;99.90;;;;;;4997780;28;20203;-81
2020/12/25 05:31:15;;;;;;;7.80;1.87;;;1.20;99.90;;;;;;4998702;28;20171;-80
2020/12/25 05:33:40;;;;;;;5.20;1.93;;;1.10;99.90;;;;;;4997960;28;20183;-80
2020/12/25 05:36:07;;;;;;;10.00;2.30;;;1.10;99.90;;;;;;4997592;28;20258;-80
2020/12/25 05:38:33;;;;;;;9.90;2.27;;;1.10;99.90;;;;;;4997886;28;20538;-80
2020/12/25 05:41:00;;;;;;;4.20;2.20;;;1.10;99.90;;;;;;4981425;28;20187;-80
2020/12/25 05:43:25;;;;;;;9.27;2.70;;;1.20;99.90;;;;;;4997972;28;20183;-81
2020/12/25 05:45:51;;;;;;;9.87;3.77;;;1.20;99.90;;;;;;4981316;28;20228;-80
2020/12/25 05:48:17;;;;;;;11.97;3.00;;;1.20;99.90;;;;;;4997528;28;20254;-80
2020/12/25 05:50:42;;;;;;;6.57;2.37;;;1.20;99.90;;;;;;4997428;28;20194;-80
2020/12/25 05:53:08;;;;;;;6.67;1.83;;;1.20;99.90;;;;;;5008223;28;20216;-80
2020/12/25 05:55:34;;;;;;;10.97;2.60;;;1.20;99.90;;;;;;4997453;28;20183;-81
2020/12/25 05:58:00;;;;;;;4.17;1.87;;;1.20;99.90;;;;;;4996883;28;20213;-80
2020/12/25 06:00:26;;;;;;;6.83;1.80;;;1.30;99.90;;;;;;4997704;28;20187;-80
2020/12/25 06:02:53;;;;;;;11.33;2.03;;;1.30;99.90;;;;;;4981115;28;20236;-80
2020/12/25 06:05:19;;;;;;;6.83;1.90;;;1.40;99.90;;;;;;4997557;28;20248;-80
2020/12/25 06:07:52;;;;;;;8.27;1.83;;;1.40;99.90;;;;;;4997285;28;20702;-80
2020/12/25 06:10:22;;;;;;;6.73;2.40;;;1.50;99.90;;;;;;4997312;28;20179;-81
2020/12/25 06:12:48;;;;;;;7.53;2.13;;;1.60;99.90;;;;;;4997863;28;20183;-80
2020/12/25 06:15:30;;;;;;;11.10;1.93;;;1.60;99.90;;;;;;4997081;28;20176;-80
2020/12/25 06:18:34;;;;;;;8.97;2.00;;;1.80;99.90;;;;;;4996947;28;20282;-80
2020/12/25 06:21:14;;;;;;;6.83;2.23;;;1.80;99.90;;;;;;5029855;28;20179;-80
2020/12/25 06:23:41;;;;;;;7.27;2.07;;;1.80;99.90;;;;;;4997194;28;20249;-80
2020/12/25 06:26:07;;;;;;;7.60;2.20;;;1.80;99.90;;;;;;4980459;28;20219;-80
2020/12/25 06:28:32;;;;;;;10.07;2.70;;;1.80;99.90;;;;;;5037316;23;20663;-80
2020/12/25 06:30:58;;;;;;;10.57;2.83;;;1.90;99.90;;;;;;4996942;28;20274;-80
2020/12/25 06:33:33;;;;;;;7.60;2.33;;;2.00;99.90;;;;;;4980940;28;20586;-80
2020/12/25 06:35:59;;;;;;;7.20;2.10;;;2.00;99.90;;;;;;4980860;28;20183;-81
2020/12/25 06:38:25;;;;;;;6.70;1.83;;;2.00;99.90;;;;;;4980892;28;20188;-80
2020/12/25 06:41:00;;;;;;;9.60;2.40;;;2.00;99.90;;;;;;4980791;28;20228;-80
2020/12/25 06:43:26;;;;;;;9.47;2.17;;;2.00;99.90;;;;;;4982079;28;20175;-80
2020/12/25 06:45:53;;;;;;;10.27;2.30;;;2.00;99.90;;;;;;4980844;28;20182;-80
2020/12/25 06:48:20;;;;;;;10.27;2.10;;;2.10;99.90;;;;;;4980703;28;20219;-80
2020/12/25 06:50:53;;;;;;;8.07;2.40;;;2.10;99.90;;;;;;4980268;28;20176;-80
2020/12/25 06:56:42;;;;;;;11.53;2.40;;;2.00;99.90;;;;;;5038322;28;20210;-81
2020/12/25 06:59:22;;;;;;;7.33;2.23;;;2.10;99.90;;;;;;5004961;28;20228;-89
2020/12/25 07:01:49;;;;;;;9.70;3.90;;;2.00;99.90;;;;;;5006706;28;20198;-90
2020/12/25 07:04:35;;;;;;;7.53;2.77;;;2.10;99.90;;;;;;5039128;28;20156;-90
2020/12/25 07:07:04;;;;;;;8.17;2.17;;;2.00;99.90;;;;;;5001712;28;20216;-86
2020/12/25 07:09:43;;;;;;;5.90;2.43;;;2.00;99.90;;;;;;5009104;28;20178;-87
2020/12/25 07:12:22;;;;;;;12.37;2.53;;;2.00;99.90;;;;;;5010109;28;20200;-88
2020/12/25 07:14:49;;;;;;;6.50;2.00;;;2.00;99.90;;;;;;5005842;28;20192;-89
2020/12/25 07:17:15;;;;;;;12.40;2.40;;;2.00;99.90;;;;;;5005086;28;20194;-87
2020/12/25 07:19:45;;;;;;;7.77;2.43;;;2.00;99.90;;;;;;4998156;28;20216;-90
2020/12/25 07:22:11;;;;;;;10.40;2.63;;;1.90;99.90;;;;;;5016236;28;20180;-89
2020/12/25 07:24:42;;;;;;;7.77;2.13;;;1.90;99.90;;;;;;4995470;28;20219;-85
2020/12/25 07:27:10;;;;;;;7.27;2.07;;;1.90;99.90;;;;;;5006880;28;20217;-90
2020/12/25 07:29:39;;;;;;;4.83;2.10;;;1.80;99.90;;;;;;5006853;28;20191;-89
2020/12/25 07:32:09;;;;;;;10.23;2.27;;;1.80;99.90;;;;;;5006814;28;20176;-90
2020/12/25 07:34:36;;;;;;;11.77;2.40;;;1.70;99.90;;;;;;5006621;28;20156;-89
2020/12/25 07:37:07;;;;;;;12.17;2.30;;;1.70;99.90;;;;;;5006796;28;20187;-89
2020/12/25 07:39:35;;;;;;;9.23;2.10;;;1.60;99.90;;;;;;5006917;28;20223;-89
2020/12/25 07:42:04;;;;;;;8.13;2.20;;;1.60;99.90;;;;;;5006361;28;20198;-90
2020/12/25 07:44:35;;;;;;;6.93;2.30;;;1.50;99.90;;;;;;5022776;28;20171;-91
2020/12/25 07:47:02;;;;;;;8.93;2.43;;;1.50;99.90;;;;;;4987426;28;20230;-83
2020/12/25 07:49:29;;;;;;;10.17;2.53;;;1.40;99.90;;;;;;4961411;28;20272;-81
2020/12/25 07:51:54;;;;;;;6.33;1.70;;;1.50;99.90;;;;;;4992263;28;20832;-81
2020/12/25 07:54:20;;;;;;;7.67;2.20;;;1.40;99.90;;;;;;5016412;28;20317;-83
2020/12/25 07:56:48;;;;;;;6.70;2.00;;;1.40;99.90;;;;;;5024987;28;20175;-89
2020/12/25 07:59:13;;;;;;;7.43;2.43;;;1.30;99.90;;;;;;5010185;28;20188;-77
2020/12/25 08:01:39;;;;;;;9.67;2.10;;;1.40;99.90;;;;;;4959503;28;20218;-78
2020/12/25 08:04:05;;;;;;;9.13;2.23;;;1.40;99.90;;;;;;4966068;28;20180;-79
2020/12/25 08:06:32;;;;;;;8.13;2.30;;;1.50;99.90;;;;;;4959878;28;20753;-77
2020/12/25 08:08:58;;;;;;;8.93;2.50;;;1.50;99.90;;;;;;4960100;28;20212;-77
2020/12/25 08:11:24;;;;;;;7.47;2.47;;;1.50;99.90;;;;;;5008027;28;20673;-81
2020/12/25 08:13:50;;;;;;;8.50;2.97;;;1.60;99.90;;;;;;4959964;28;20650;-80
2020/12/25 08:16:16;;;;;;;9.27;2.33;;;1.70;99.90;;;;;;4959397;28;20223;-78
2020/12/25 08:18:41;;;;;;;8.67;2.07;;;1.80;99.90;;;;;;4959366;28;20237;-78
2020/12/25 08:21:07;;;;;;;7.97;2.57;;;1.90;99.90;;;;;;4959862;28;20211;-77
2020/12/25 08:23:36;;;;;;;6.30;2.07;;;2.00;99.90;;;;;;4959251;28;20800;-77
2020/12/25 08:26:02;;;;;;;3.27;1.80;;;2.10;99.90;;;;;;4959329;28;20286;-78
2020/12/25 08:28:31;;;;;;;7.40;2.33;;;2.20;99.90;;;;;;4959215;28;20220;-80
2020/12/25 08:31:17;;;;;;;6.67;2.60;;;2.20;99.90;;;;;;4959140;28;20248;-77
2020/12/25 08:33:55;;;;;;;10.50;3.00;;;2.30;99.90;;;;;;4974849;28;20188;-76
2020/12/25 08:36:22;;;;;;;8.13;3.10;;;2.40;99.90;;;;;;4975189;28;20200;-77
2020/12/25 08:38:47;;;;;;;7.63;3.07;;;2.40;99.90;;;;;;4959238;28;20184;-77
2020/12/25 08:41:15;;;;;;;7.87;2.80;;;2.50;99.90;;;;;;4958926;28;20295;-77
2020/12/25 08:43:41;;;;;;;8.73;3.13;;;2.60;99.90;;;;;;4994945;28;20190;-78
2020/12/25 08:46:07;;;;;;;10.87;3.50;;;2.60;99.90;;;;;;5009452;28;20188;-77
2020/12/25 08:48:35;;;;;;;7.57;2.70;;;2.60;99.90;;;;;;5007332;28;20214;-76
2020/12/25 08:51:07;;;;;;;4.83;2.03;;;2.60;99.90;;;;;;4959134;28;20219;-77
2020/12/25 08:53:33;;;;;;;6.13;1.87;;;2.70;99.90;;;;;;4975300;28;20175;-77
2020/12/25 08:56:12;;;;;;;9.30;2.20;;;2.80;99.90;;;;;;4959015;28;20207;-77
2020/12/25 08:58:37;;;;;;;7.23;2.13;;;2.90;99.90;;;;;;4960585;28;20176;-77
2020/12/25 09:01:04;;;;;;;8.33;2.10;;;3.00;99.90;;;;;;4958601;28;20574;-77
2020/12/25 09:03:40;;;;;;;7.00;2.27;;;3.00;99.90;;;;;;4959231;28;20661;-77
2020/12/25 09:06:06;;;;;;;4.67;2.60;;;2.90;99.90;;;;;;4958935;28;20186;-76
2020/12/25 09:08:31;;;;;;;8.80;2.40;;;2.90;99.90;;;;;;4958934;28;20541;-76
2020/12/25 09:10:57;;;;;;;8.73;2.20;;;3.00;99.90;;;;;;4958834;28;20192;-77
2020/12/25 09:13:23;;;;;;;5.63;2.10;;;3.00;99.90;;;;;;4960365;28;20188;-77
2020/12/25 09:15:48;;;;;;;6.83;2.10;;;2.90;99.90;;;;;;4973237;28;20176;-77
2020/12/25 09:18:14;;;;;;;7.77;2.67;;;2.90;99.90;;;;;;4978331;28;20286;-77
2020/12/25 09:20:39;;;;;;;6.40;2.67;;;2.90;99.90;;;;;;4978565;28;20180;-77
2020/12/25 09:23:05;;;;;;;9.07;2.70;;;2.90;99.90;;;;;;4978949;28;20592;-77
2020/12/25 09:25:31;;;;;;;8.13;2.40;;;2.80;99.90;;;;;;4978225;28;20680;-77
2020/12/25 09:27:56;;;;;;;6.77;2.70;;;2.80;99.90;;;;;;4977961;28;20310;-76
2020/12/25 09:30:22;;;;;;;8.50;2.60;;;2.80;99.90;;;;;;4978197;28;20173;-77
2020/12/25 09:32:48;;;;;;;4.13;1.97;;;2.80;99.90;;;;;;4978108;28;20196;-77
2020/12/25 09:35:13;;;;;;;4.73;2.30;;;2.90;99.90;;;;;;4978107;28;20180;-77
2020/12/25 09:37:39;;;;;;;8.90;2.67;;;2.80;99.90;;;;;;4978035;28;20183;-76
2020/12/25 09:40:04;;;;;;;6.40;2.33;;;2.80;99.90;;;;;;4978085;28;20184;-77
2020/12/25 09:42:30;;;;;;;8.00;2.37;;;2.80;99.90;;;;;;4978045;28;20577;-76
2020/12/25 09:44:56;;;;;;;10.63;2.23;;;2.80;99.90;;;;;;4978043;28;20180;-77
2020/12/25 09:47:21;;;;;;;7.70;2.43;;;2.90;99.90;;;;;;4977757;28;20204;-78
2020/12/25 09:49:47;;;;;;;4.37;2.30;;;3.10;99.90;;;;;;4977925;28;20176;-76
2020/12/25 09:52:13;;;;;;;6.23;2.37;;;3.40;99.90;;;;;;4980883;28;20210;-77
2020/12/25 09:54:38;;;;;;;7.50;2.40;;;3.60;99.90;;;;;;5013678;28;20184;-77
2020/12/25 09:57:04;;;;;;;7.63;2.43;;;3.70;99.90;;;;;;5013332;28;20171;-78
2020/12/25 09:59:30;;;;;;;7.63;2.40;;;3.70;99.90;;;;;;5013456;28;20187;-77
2020/12/25 10:01:56;;;;;;;6.07;2.20;;;3.70;99.90;;;;;;5013354;28;20196;-76
2020/12/25 10:04:21;;;;;;;6.33;2.07;;;3.70;99.90;;;;;;5013399;28;20184;-77
2020/12/25 10:06:47;;;;;;;6.83;2.03;;;3.80;99.90;;;;;;5013154;28;20172;-77
2020/12/25 10:09:12;;;;;;;5.93;2.10;;;3.90;99.90;;;;;;5013269;28;20302;-77
2020/12/25 10:11:38;;;;;;;5.73;2.07;;;4.00;99.90;;;;;;5013332;28;20294;-77
2020/12/25 10:14:04;;;;;;;4.10;2.00;;;3.90;99.90;;;;;;5013237;28;20176;-77
2020/12/25 10:16:29;;;;;;;4.43;1.77;;;4.00;99.90;;;;;;5013064;28;20187;-77
2020/12/25 10:18:55;;;;;;;10.63;2.00;;;4.00;99.90;;;;;;5013219;28;20266;-78
2020/12/25 10:21:21;;;;;;;6.10;2.50;;;4.10;99.90;;;;;;5013191;28;20206;-77
2020/12/25 10:23:46;;;;;;;4.30;2.23;;;4.10;99.90;;;;;;5012824;28;20286;-78
2020/12/25 10:26:12;;;;;;;8.70;3.30;;;4.10;99.90;;;;;;5011886;28;20230;-77
2020/12/25 10:28:38;;;;;;;9.33;2.40;;;4.10;99.90;;;;;;5012592;28;20224;-77
2020/12/25 10:31:05;;;;;;;5.40;2.13;;;4.00;99.90;;;;;;5009599;28;20260;-81
2020/12/25 10:33:30;;;;;;;3.33;1.70;;;3.90;99.90;;;;;;4967279;28;20257;-80
2020/12/25 10:35:56;;;;;;;5.10;2.20;;;3.90;99.90;;;;;;4980393;28;20672;-78
2020/12/25 10:38:22;;;;;;;4.73;1.60;;;3.80;99.90;;;;;;4971736;28;20191;-77
2020/12/25 10:40:50;;;;;;;8.87;2.03;;;3.70;99.90;;;;;;4992433;28;20207;-77
2020/12/25 10:43:16;;;;;;;7.27;2.07;;;3.70;99.90;;;;;;4987850;28;20187;-77
2020/12/25 10:45:42;;;;;;;7.00;2.43;;;3.70;99.90;;;;;;4980354;28;20184;-79
2020/12/25 10:48:08;;;;;;;5.97;1.87;;;3.70;99.90;;;;;;4991432;28;20192;-78
2020/12/25 10:50:33;;;;;;;8.03;2.30;;;3.80;99.90;;;;;;4989604;28;20186;-78
2020/12/25 10:52:59;;;;;;;5.83;2.00;;;3.80;99.90;;;;;;4987300;28;20188;-77
2020/12/25 10:55:25;;;;;;;8.20;2.10;;;3.90;99.90;;;;;;4986537;28;20180;-78
2020/12/25 10:57:50;;;;;;;6.83;1.93;;;4.00;99.90;;;;;;4970106;28;20187;-78
2020/12/25 11:00:16;;;;;;;6.70;2.40;;;4.00;99.90;;;;;;4967949;28;20184;-78
2020/12/25 11:02:41;;;;;;;5.47;1.80;;;4.00;99.90;;;;;;4992537;28;20204;-78
2020/12/25 11:05:07;;;;;;;5.70;1.90;;;4.00;99.90;;;;;;4996015;28;20201;-78
2020/12/25 11:07:33;;;;;;;8.50;1.70;;;4.00;99.90;;;;;;4976560;28;20200;-78
2020/12/25 11:09:58;;;;;;;10.77;2.53;;;4.00;99.90;;;;;;4979674;28;20194;-78
2020/12/25 11:12:24;;;;;;;6.97;1.70;;;4.00;99.90;;;;;;4992853;28;20205;-78
2020/12/25 11:14:50;;;;;;;5.57;2.00;;;4.10;99.90;;;;;;4986962;28;20194;-78
2020/12/25 11:17:18;;;;;;;8.47;2.00;;;4.20;99.90;;;;;;4973946;28;20209;-78
2020/12/25 11:19:44;;;;;;;5.73;1.90;;;4.20;99.90;;;;;;5001815;28;20279;-78
2020/12/25 11:22:13;;;;;;;6.30;1.70;;;4.30;99.90;;;;;;4976310;28;20334;-78
2020/12/25 11:24:43;;;;;;;8.57;1.47;;;4.40;99.90;;;;;;4971578;28;20626;-77
2020/12/25 11:27:09;;;;;;;9.80;1.80;;;4.40;99.90;;;;;;4997716;28;20716;-78
2020/12/25 11:29:35;;;;;;;7.70;1.97;;;4.40;99.90;;;;;;4970433;28;20172;-78
2020/12/25 11:32:01;;;;;;;8.20;1.50;;;4.40;99.90;;;;;;5002753;28;20342;-77
2020/12/25 11:34:26;;;;;;;7.53;1.87;;;4.40;99.90;;;;;;4973857;28;20178;-78
2020/12/25 11:36:52;;;;;;;7.87;2.00;;;4.50;99.90;;;;;;4998159;28;20187;-78
2020/12/25 11:39:18;;;;;;;9.47;2.30;;;4.50;99.90;;;;;;4995229;28;20612;-77
2020/12/25 11:41:43;;;;;;;6.10;1.53;;;4.50;99.90;;;;;;4973235;28;20195;-79
2020/12/25 11:44:09;;;;;;;9.90;1.50;;;4.60;99.90;;;;;;4993567;28;20190;-78
2020/12/25 11:46:35;;;;;;;7.40;1.90;;;4.70;99.90;;;;;;4971485;28;20726;-78
2020/12/25 11:49:03;;;;;;;7.53;1.80;;;4.70;99.90;;;;;;4982258;28;20211;-78
2020/12/25 11:51:29;;;;;;;9.13;1.63;;;4.60;99.90;;;;;;4990257;28;20204;-78
2020/12/25 11:53:55;;;;;;;8.23;1.83;;;4.60;99.90;;;;;;4967623;28;20240;-78
2020/12/25 11:56:22;;;;;;;8.90;1.90;;;4.50;99.90;;;;;;4968127;28;20558;-78
2020/12/25 11:58:47;;;;;;;7.17;2.23;;;4.60;99.90;;;;;;4992771;28;20226;-79
2020/12/25 12:01:14;;;;;;;6.80;2.07;;;4.70;99.90;;;;;;4972482;28;20688;-78
2020/12/25 12:03:39;;;;;;;9.13;2.30;;;4.80;99.90;;;;;;4984233;28;20278;-79
2020/12/25 12:06:05;;;;;;;6.93;1.70;;;4.90;99.90;;;;;;5004937;28;20222;-78
2020/12/25 12:08:31;;;;;;;10.33;2.43;;;4.90;99.90;;;;;;4990482;28;20244;-79
2020/12/25 12:10:56;;;;;;;8.40;1.90;;;4.90;99.90;;;;;;4990549;28;20202;-79
2020/12/25 12:13:22;;;;;;;8.80;2.03;;;5.00;99.90;;;;;;4989088;28;20673;-80
2020/12/25 12:15:47;;;;;;;6.60;1.90;;;5.10;99.90;;;;;;4977477;28;20179;-80
2020/12/25 12:18:13;;;;;;;9.47;2.27;;;5.20;99.90;;;;;;4973179;28;20194;-80
2020/12/25 12:20:39;;;;;;;6.23;1.57;;;5.40;99.90;;;;;;4996572;28;20179;-81
2020/12/25 12:23:04;;;;;;;10.83;1.80;;;5.40;99.90;;;;;;4993204;28;20842;-79
2020/12/25 12:25:30;;;;;;;5.00;1.90;;;5.40;99.90;;;;;;4985882;28;20727;-79
2020/12/25 12:27:56;;;;;;;3.10;1.40;;;5.30;99.90;;;;;;4994875;28;20216;-79
2020/12/25 12:30:22;;;;;;;8.30;1.87;;;5.10;99.90;;;;;;4969790;28;20176;-79
2020/12/25 12:32:47;;;;;;;9.93;2.20;;;5.00;99.90;;;;;;4977817;28;20200;-79
2020/12/25 12:35:13;;;;;;;8.03;2.50;;;4.90;99.90;;;;;;4973026;28;20185;-80
2020/12/25 12:37:40;;;;;;;9.20;1.97;;;5.00;99.90;;;;;;4995675;28;20267;-79
2020/12/25 12:40:06;;;;;;;12.40;3.20;;;5.00;99.90;;;;;;4973951;28;21062;-80
2020/12/25 12:42:32;;;;;;;9.10;1.67;;;5.20;99.90;;;;;;4980821;28;20234;-81
2020/12/25 12:44:58;;;;;;;8.30;1.60;;;5.20;99.90;;;;;;4994225;28;20196;-79
2020/12/25 12:47:24;;;;;;;8.13;2.17;;;5.20;99.90;;;;;;4991647;28;20203;-80
2020/12/25 12:49:49;;;;;;;7.57;2.17;;;5.20;99.90;;;;;;4997713;28;20665;-80
2020/12/25 12:52:15;;;;;;;10.87;2.20;;;5.20;99.90;;;;;;4971247;28;20803;-82
2020/12/25 12:54:41;;;;;;;9.63;2.07;;;5.10;99.90;;;;;;4985884;28;20186;-81
2020/12/25 12:57:06;;;;;;;5.60;1.87;;;5.00;99.90;;;;;;4986188;28;20695;-82